Bessemer, Michigan
Current Conditions -  °F | °C
As of 12:35 AM on Thursday 27 Nov 2014 (Local Time) from KIWD Reporting Station
Overcast Overcast  
Wind Chill:   Ceiling: 600
Heat Index: 14°   Visibility: 0.75mi
Dew Point: 12°   Wind: 8mph
Humidity: 93%   Direction: 340°NNW
Pressure: 30.25"   Gusts: NA
Location:  46.48°N, 90.05°W
Report Text: KIWD 270635Z AUTO 34007KT 3/4SM OVC006 M10/M11 A3025 RMK AO1
Loading
Personal Weather Stations






























Interactive Weather Map New forecast layout! Learn more

10-Day Weather Forecast

Advertisements
Track Severe Weather on mobile